Maersk Essex — V7WJ2 — position and weather

sailwx.info

Track history (hours):
 
Tides and Currents Weather Stations Pressure Air Temp Water Temp Dewpoint Dewpoint Depression Visibility Wind Speed Wind Dir Waves Ship Positions

Maersk Essex

Last reported at 2017-Sep-18 14:58 UTC. Time now 2017-Sep-26 09:31 UTC.
Position N 01°20' E 103°17'.

Length 366 m; draft 11.7 m.

Type: Ship (hazmat cat A). MMSI: 538004304.

Date/timePositionNaut miles runAvg speedWind from/ knotsBaromVisibWave heightAir tempDewpointWater temp
2017-Sep-18 14:58N 01°20' E 103°17'917.9
2017-Sep-18 14:27N 01°15' E 103°25'714.9
2017-Sep-18 14:00N 01°14' E 103°32'511.0
2017-Sep-18 13:30N 01°19' E 103°33'1 2.5
2017-Sep-18 12:59N 01°20' E 103°33'0 0.3
2017-Sep-18 12:30N 01°20' E 103°33'0 0.0
2017-Sep-18 11:59N 01°20' E 103°33'0 0.0
2017-Sep-18 11:17N 01°20' E 103°33'0 0.0
2017-Sep-18 10:56N 01°20' E 103°33'0 0.0
2017-Sep-18 10:26N 01°20' E 103°33'0 0.1
2017-Sep-18 09:59N 01°20' E 103°33'0 0.1
2017-Sep-18 09:29N 01°20' E 103°33'0 0.0
2017-Sep-18 08:56N 01°20' E 103°33'0 0.1
2017-Sep-18 08:29N 01°20' E 103°33'0 0.1
2017-Sep-18 07:38N 01°20' E 103°33'0 0.0
2017-Sep-18 07:23N 01°20' E 103°33'0 0.0
2017-Sep-18 06:56N 01°20' E 103°33'0 0.0
2017-Sep-18 06:29N 01°20' E 103°33'0 0.0
2017-Sep-18 05:56N 01°20' E 103°33'0 0.0
2017-Sep-18 05:29N 01°20' E 103°33'0 0.0
2017-Sep-18 04:59N 01°20' E 103°33'0 0.0
2017-Sep-18 04:29N 01°20' E 103°33'0 0.0
2017-Sep-18 03:56N 01°20' E 103°33'0 0.1
2017-Sep-18 03:29N 01°20' E 103°33'0 0.1
2017-Sep-18 02:50N 01°20' E 103°33'0 0.0
2017-Sep-18 02:29N 01°20' E 103°33'0 0.0
2017-Sep-18 01:44N 01°20' E 103°33'0 0.0
2017-Sep-18 01:20N 01°20' E 103°33'0 0.0
2017-Sep-18 00:53N 01°20' E 103°33'0 0.0
2017-Sep-18 00:26N 01°20' E 103°33'0 0.0
2017-Sep-17 23:56N 01°20' E 103°33'0 0.0
2017-Sep-17 23:23N 01°20' E 103°33'0 0.1
2017-Sep-17 22:56N 01°20' E 103°33'0 0.0
2017-Sep-17 22:29N 01°20' E 103°33'0 0.1
2017-Sep-17 21:56N 01°20' E 103°33'0 0.0
2017-Sep-17 21:26N 01°20' E 103°33'0 0.0
2017-Sep-17 20:56N 01°20' E 103°33'0 0.0
2017-Sep-17 20:23N 01°20' E 103°33'0 0.0
2017-Sep-17 19:53N 01°20' E 103°33'0 0.0
2017-Sep-17 19:23N 01°20' E 103°33'0 0.0
2017-Sep-17 18:59N 01°20' E 103°33'0 0.0
2017-Sep-17 18:29N 01°20' E 103°33'0 0.0
2017-Sep-17 17:56N 01°20' E 103°33'0 0.0
2017-Sep-17 17:29N 01°20' E 103°33'0 0.0
2017-Sep-17 16:56N 01°20' E 103°33'0 0.0
2017-Sep-17 16:29N 01°20' E 103°33'0 0.0
2017-Sep-17 15:47N 01°20' E 103°33'0 0.0
2017-Sep-17 15:29N 01°20' E 103°33'0 0.0
2017-Sep-17 14:53N 01°20' E 103°33'0 0.0
2017-Sep-17 14:23N 01°20' E 103°33'0 0.0
2017-Sep-17 13:38N 01°20' E 103°33'0 0.0
2017-Sep-17 13:30N 01°20' E 103°33'0 0.4
2017-Sep-17 12:59N 01°20' E 103°33'2 4.8
2017-Sep-17 12:30N 01°18' E 103°33'5 9.0
2017-Sep-17 11:59N 01°13' E 103°33'3 5.7
2017-Sep-17 11:30N 01°12' E 103°35'510.4
2017-Sep-17 11:00N 01°11' E 103°40'510.9
2017-Sep-17 10:30N 01°09' E 103°45'612.7
2017-Sep-17 10:00N 01°12' E 103°51'713.4
2017-Sep-17 09:30N 01°14' E 103°57'714.2
2017-Sep-17 09:00N 01°16' E 104°04'713.5
2017-Sep-17 08:27N 01°17' E 104°12'613.8
2017-Sep-17 07:59N 01°18' E 104°18'  
2017-Sep-11 16:51N 30°25' E 122°50'15 0.5
2017-Sep-10 13:13N 30°30' E 122°34'510.0
2017-Sep-10 12:43N 30°29' E 122°40'412.3
2017-Sep-10 12:21N 30°28' E 122°44'512.9
2017-Sep-10 12:00N 30°25' E 122°49'611.9
2017-Sep-10 11:28N 30°21' E 122°54'1211.3
2017-Sep-10 10:27N 30°12' E 123°03'612.8
2017-Sep-10 10:00N 30°07' E 123°01'712.5
2017-Sep-10 09:28N 30°02' E 122°56'2 2.1
2017-Sep-10 08:19N 29°60' E 122°54'2 1.9
2017-Sep-10 07:21N 29°59' E 122°53'3 7.4
2017-Sep-10 07:00N 29°57' E 122°51'4 8.4
2017-Sep-10 06:29N 29°53' E 122°48'4 8.5
2017-Sep-10 06:00N 29°50' E 122°45'4 8.1
2017-Sep-10 05:30N 29°47' E 122°42'4 8.0
2017-Sep-10 04:57N 29°44' E 122°38'4 8.1
2017-Sep-10 04:30N 29°41' E 122°35'4 8.2
2017-Sep-10 04:00N 29°41' E 122°30'4 8.6
2017-Sep-10 03:31N 29°42' E 122°26'4 8.1
2017-Sep-10 03:00N 29°44' E 122°21'4 7.3
2017-Sep-10 02:30N 29°46' E 122°18'4 8.1
2017-Sep-10 02:01N 29°48' E 122°14'5 9.2
2017-Sep-10 01:30N 29°52' E 122°11'612.4
2017-Sep-10 01:00N 29°55' E 122°05'3 5.1
2017-Sep-10 00:25N 29°54' E 122°02'0 0.0
2017-Sep-09 23:56N 29°54' E 122°02'0 0.0
2017-Sep-09 23:25N 29°54' E 122°02'0 0.1
2017-Sep-09 22:55N 29°54' E 122°02'0 0.1
2017-Sep-09 22:25N 29°54' E 122°02'0 0.0
2017-Sep-09 21:49N 29°54' E 122°02'0 0.1
2017-Sep-09 21:13N 29°54' E 122°02'0 0.2
2017-Sep-09 20:55N 29°54' E 122°02'0 0.0
2017-Sep-09 20:25N 29°54' E 122°02'0 0.0
2017-Sep-09 19:55N 29°54' E 122°02'0 0.0
2017-Sep-09 19:19N 29°54' E 122°02'0 0.0
2017-Sep-09 18:58N 29°54' E 122°02'0 0.1
2017-Sep-09 18:25N 29°54' E 122°02'0 0.1
2017-Sep-09 17:55N 29°54' E 122°02'0 0.0
2017-Sep-09 17:26N 29°54' E 122°02'0 0.1
2017-Sep-09 16:49N 29°54' E 122°02'0 0.1
2017-Sep-09 16:13N 29°54' E 122°02'0 0.0
2017-Sep-09 15:55N 29°54' E 122°02'0 0.0
2017-Sep-09 14:43N 29°54' E 122°02'0 0.0
2017-Sep-09 14:25N 29°54' E 122°02'0 0.1
2017-Sep-09 13:49N 29°54' E 122°02'0 0.0
2017-Sep-09 13:25N 29°54' E 122°02'0 0.1
2017-Sep-09 12:49N 29°54' E 122°02'0 0.1
2017-Sep-09 12:25N 29°54' E 122°02'0 0.1
2017-Sep-09 11:55N 29°54' E 122°02'0 0.0
2017-Sep-09 11:25N 29°54' E 122°02'0 0.1
2017-Sep-09 10:55N 29°54' E 122°02'0 0.1
2017-Sep-09 10:25N 29°54' E 122°02'0 0.0
2017-Sep-09 09:55N 29°54' E 122°02'0 0.1
2017-Sep-09 09:25N 29°54' E 122°02'0 0.1
2017-Sep-09 08:55N 29°54' E 122°02'0 0.1
2017-Sep-09 08:19N 29°54' E 122°02'0 0.0
2017-Sep-09 07:55N 29°54' E 122°02'0 0.0
2017-Sep-09 07:19N 29°54' E 122°02'0 0.0
2017-Sep-09 06:55N 29°54' E 122°02'0 0.0
2017-Sep-09 06:25N 29°54' E 122°02'0 0.0
2017-Sep-09 05:49N 29°54' E 122°02'0 0.0
2017-Sep-09 05:19N 29°54' E 122°02'0 0.0
2017-Sep-09 04:55N 29°54' E 122°02'0 0.1
2017-Sep-09 04:25N 29°54' E 122°02'0 0.0
2017-Sep-09 03:55N 29°54' E 122°02'0 0.0
2017-Sep-09 03:25N 29°54' E 122°02'0 0.1
2017-Sep-09 02:55N 29°54' E 122°02'0 0.1
2017-Sep-09 02:25N 29°54' E 122°02'0 0.1
2017-Sep-09 01:49N 29°54' E 122°02'0 0.1
2017-Sep-09 01:25N 29°54' E 122°02'0 0.0
2017-Sep-09 00:55N 29°54' E 122°02'0 0.1
2017-Sep-09 00:25N 29°54' E 122°02'0 0.1
2017-Sep-08 23:49N 29°54' E 122°02'0 0.0
2017-Sep-08 23:07N 29°54' E 122°02'0 0.0
2017-Sep-08 22:49N 29°54' E 122°02'0 0.0
2017-Sep-08 22:25N 29°54' E 122°02'0 0.0
2017-Sep-08 21:43N 29°54' E 122°02'0 0.2
2017-Sep-08 21:25N 29°54' E 122°02'0 0.0
2017-Sep-08 20:49N 29°54' E 122°02'0 0.0
2017-Sep-08 20:25N 29°54' E 122°02'0 0.0
2017-Sep-08 19:55N 29°54' E 122°02'0 0.0
2017-Sep-08 19:25N 29°54' E 122°02'0 0.1
2017-Sep-08 18:55N 29°54' E 122°02'0 0.1
2017-Sep-08 18:25N 29°54' E 122°02'0 0.0
2017-Sep-08 17:55N 29°54' E 122°02'0 0.2
2017-Sep-08 17:30N 29°54' E 122°02'2 3.0
2017-Sep-08 17:00N 29°54' E 122°04'611.2
2017-Sep-08 16:30N 29°55' E 122°10'713.9
2017-Sep-08 16:00N 29°49' E 122°14'5 9.5
2017-Sep-08 15:30N 29°45' E 122°18'4 7.2
2017-Sep-08 15:00N 29°44' E 122°22'  
Track history (hours):
 
Tides and Currents Weather Stations Pressure Air Temp Water Temp Dewpoint Dewpoint Depression Visibility Wind Speed Wind Dir Waves Ship Positions

Maersk Essex

Last reported at 2017-Sep-18 14:58 UTC. Time now 2017-Sep-26 09:31 UTC.
Position N 01°20' E 103°17'.

Length 366 m; draft 11.7 m.

Type: Ship (hazmat cat A). MMSI: 538004304.

Date/timePositionNaut miles runAvg speedWind from/ knotsBaromVisibWave heightAir tempDewpointWater temp
2017-Sep-18 14:58N 01°20' E 103°17'917.9
2017-Sep-18 14:27N 01°15' E 103°25'714.9
2017-Sep-18 14:00N 01°14' E 103°32'511.0
2017-Sep-18 13:30N 01°19' E 103°33'1 2.5
2017-Sep-18 12:59N 01°20' E 103°33'0 0.3
2017-Sep-18 12:30N 01°20' E 103°33'0 0.0
2017-Sep-18 11:59N 01°20' E 103°33'0 0.0
2017-Sep-18 11:17N 01°20' E 103°33'0 0.0
2017-Sep-18 10:56N 01°20' E 103°33'0 0.0
2017-Sep-18 10:26N 01°20' E 103°33'0 0.1
2017-Sep-18 09:59N 01°20' E 103°33'0 0.1
2017-Sep-18 09:29N 01°20' E 103°33'0 0.0
2017-Sep-18 08:56N 01°20' E 103°33'0 0.1
2017-Sep-18 08:29N 01°20' E 103°33'0 0.1
2017-Sep-18 07:38N 01°20' E 103°33'0 0.0
2017-Sep-18 07:23N 01°20' E 103°33'0 0.0
2017-Sep-18 06:56N 01°20' E 103°33'0 0.0
2017-Sep-18 06:29N 01°20' E 103°33'0 0.0
2017-Sep-18 05:56N 01°20' E 103°33'0 0.0
2017-Sep-18 05:29N 01°20' E 103°33'0 0.0
2017-Sep-18 04:59N 01°20' E 103°33'0 0.0
2017-Sep-18 04:29N 01°20' E 103°33'0 0.0
2017-Sep-18 03:56N 01°20' E 103°33'0 0.1
2017-Sep-18 03:29N 01°20' E 103°33'0 0.1
2017-Sep-18 02:50N 01°20' E 103°33'0 0.0
2017-Sep-18 02:29N 01°20' E 103°33'0 0.0
2017-Sep-18 01:44N 01°20' E 103°33'0 0.0
2017-Sep-18 01:20N 01°20' E 103°33'0 0.0
2017-Sep-18 00:53N 01°20' E 103°33'0 0.0
2017-Sep-18 00:26N 01°20' E 103°33'0 0.0
2017-Sep-17 23:56N 01°20' E 103°33'0 0.0
2017-Sep-17 23:23N 01°20' E 103°33'0 0.1
2017-Sep-17 22:56N 01°20' E 103°33'0 0.0
2017-Sep-17 22:29N 01°20' E 103°33'0 0.1
2017-Sep-17 21:56N 01°20' E 103°33'0 0.0
2017-Sep-17 21:26N 01°20' E 103°33'0 0.0
2017-Sep-17 20:56N 01°20' E 103°33'0 0.0
2017-Sep-17 20:23N 01°20' E 103°33'0 0.0
2017-Sep-17 19:53N 01°20' E 103°33'0 0.0
2017-Sep-17 19:23N 01°20' E 103°33'0 0.0
2017-Sep-17 18:59N 01°20' E 103°33'0 0.0
2017-Sep-17 18:29N 01°20' E 103°33'0 0.0
2017-Sep-17 17:56N 01°20' E 103°33'0 0.0
2017-Sep-17 17:29N 01°20' E 103°33'0 0.0
2017-Sep-17 16:56N 01°20' E 103°33'0 0.0
2017-Sep-17 16:29N 01°20' E 103°33'0 0.0
2017-Sep-17 15:47N 01°20' E 103°33'0 0.0
2017-Sep-17 15:29N 01°20' E 103°33'0 0.0
2017-Sep-17 14:53N 01°20' E 103°33'0 0.0
2017-Sep-17 14:23N 01°20' E 103°33'0 0.0
2017-Sep-17 13:38N 01°20' E 103°33'0 0.0
2017-Sep-17 13:30N 01°20' E 103°33'0 0.4
2017-Sep-17 12:59N 01°20' E 103°33'2 4.8
2017-Sep-17 12:30N 01°18' E 103°33'5 9.0
2017-Sep-17 11:59N 01°13' E 103°33'3 5.7
2017-Sep-17 11:30N 01°12' E 103°35'510.4
2017-Sep-17 11:00N 01°11' E 103°40'510.9
2017-Sep-17 10:30N 01°09' E 103°45'612.7
2017-Sep-17 10:00N 01°12' E 103°51'713.4
2017-Sep-17 09:30N 01°14' E 103°57'714.2
2017-Sep-17 09:00N 01°16' E 104°04'713.5
2017-Sep-17 08:27N 01°17' E 104°12'613.8
2017-Sep-17 07:59N 01°18' E 104°18'  
2017-Sep-11 16:51N 30°25' E 122°50'15 0.5
2017-Sep-10 13:13N 30°30' E 122°34'510.0
2017-Sep-10 12:43N 30°29' E 122°40'412.3
2017-Sep-10 12:21N 30°28' E 122°44'512.9
2017-Sep-10 12:00N 30°25' E 122°49'611.9
2017-Sep-10 11:28N 30°21' E 122°54'1211.3
2017-Sep-10 10:27N 30°12' E 123°03'612.8
2017-Sep-10 10:00N 30°07' E 123°01'712.5
2017-Sep-10 09:28N 30°02' E 122°56'2 2.1
2017-Sep-10 08:19N 29°60' E 122°54'2 1.9
2017-Sep-10 07:21N 29°59' E 122°53'3 7.4
2017-Sep-10 07:00N 29°57' E 122°51'4 8.4
2017-Sep-10 06:29N 29°53' E 122°48'4 8.5
2017-Sep-10 06:00N 29°50' E 122°45'4 8.1
2017-Sep-10 05:30N 29°47' E 122°42'4 8.0
2017-Sep-10 04:57N 29°44' E 122°38'4 8.1
2017-Sep-10 04:30N 29°41' E 122°35'4 8.2
2017-Sep-10 04:00N 29°41' E 122°30'4 8.6
2017-Sep-10 03:31N 29°42' E 122°26'4 8.1
2017-Sep-10 03:00N 29°44' E 122°21'4 7.3
2017-Sep-10 02:30N 29°46' E 122°18'4 8.1
2017-Sep-10 02:01N 29°48' E 122°14'5 9.2
2017-Sep-10 01:30N 29°52' E 122°11'612.4
2017-Sep-10 01:00N 29°55' E 122°05'3 5.1
2017-Sep-10 00:25N 29°54' E 122°02'0 0.0
2017-Sep-09 23:56N 29°54' E 122°02'0 0.0
2017-Sep-09 23:25N 29°54' E 122°02'0 0.1
2017-Sep-09 22:55N 29°54' E 122°02'0 0.1
2017-Sep-09 22:25N 29°54' E 122°02'0 0.0
2017-Sep-09 21:49N 29°54' E 122°02'0 0.1
2017-Sep-09 21:13N 29°54' E 122°02'0 0.2
2017-Sep-09 20:55N 29°54' E 122°02'0 0.0
2017-Sep-09 20:25N 29°54' E 122°02'0 0.0
2017-Sep-09 19:55N 29°54' E 122°02'0 0.0
2017-Sep-09 19:19N 29°54' E 122°02'0 0.0
2017-Sep-09 18:58N 29°54' E 122°02'0 0.1
2017-Sep-09 18:25N 29°54' E 122°02'0 0.1
2017-Sep-09 17:55N 29°54' E 122°02'0 0.0
2017-Sep-09 17:26N 29°54' E 122°02'0 0.1
2017-Sep-09 16:49N 29°54' E 122°02'0 0.1
2017-Sep-09 16:13N 29°54' E 122°02'0 0.0
2017-Sep-09 15:55N 29°54' E 122°02'0 0.0
2017-Sep-09 14:43N 29°54' E 122°02'0 0.0
2017-Sep-09 14:25N 29°54' E 122°02'0 0.1
2017-Sep-09 13:49N 29°54' E 122°02'0 0.0
2017-Sep-09 13:25N 29°54' E 122°02'0 0.1
2017-Sep-09 12:49N 29°54' E 122°02'0 0.1
2017-Sep-09 12:25N 29°54' E 122°02'0 0.1
2017-Sep-09 11:55N 29°54' E 122°02'0 0.0
2017-Sep-09 11:25N 29°54' E 122°02'0 0.1
2017-Sep-09 10:55N 29°54' E 122°02'0 0.1
2017-Sep-09 10:25N 29°54' E 122°02'0 0.0
2017-Sep-09 09:55N 29°54' E 122°02'0 0.1
2017-Sep-09 09:25N 29°54' E 122°02'0 0.1
2017-Sep-09 08:55N 29°54' E 122°02'0 0.1
2017-Sep-09 08:19N 29°54' E 122°02'0 0.0
2017-Sep-09 07:55N 29°54' E 122°02'0 0.0
2017-Sep-09 07:19N 29°54' E 122°02'0 0.0
2017-Sep-09 06:55N 29°54' E 122°02'0 0.0
2017-Sep-09 06:25N 29°54' E 122°02'0 0.0
2017-Sep-09 05:49N 29°54' E 122°02'0 0.0
2017-Sep-09 05:19N 29°54' E 122°02'0 0.0
2017-Sep-09 04:55N 29°54' E 122°02'0 0.1
2017-Sep-09 04:25N 29°54' E 122°02'0 0.0
2017-Sep-09 03:55N 29°54' E 122°02'0 0.0
2017-Sep-09 03:25N 29°54' E 122°02'0 0.1
2017-Sep-09 02:55N 29°54' E 122°02'0 0.1
2017-Sep-09 02:25N 29°54' E 122°02'0 0.1
2017-Sep-09 01:49N 29°54' E 122°02'0 0.1
2017-Sep-09 01:25N 29°54' E 122°02'0 0.0
2017-Sep-09 00:55N 29°54' E 122°02'0 0.1
2017-Sep-09 00:25N 29°54' E 122°02'0 0.1
2017-Sep-08 23:49N 29°54' E 122°02'0 0.0
2017-Sep-08 23:07N 29°54' E 122°02'0 0.0
2017-Sep-08 22:49N 29°54' E 122°02'0 0.0
2017-Sep-08 22:25N 29°54' E 122°02'0 0.0
2017-Sep-08 21:43N 29°54' E 122°02'0 0.2
2017-Sep-08 21:25N 29°54' E 122°02'0 0.0
2017-Sep-08 20:49N 29°54' E 122°02'0 0.0
2017-Sep-08 20:25N 29°54' E 122°02'0 0.0
2017-Sep-08 19:55N 29°54' E 122°02'0 0.0
2017-Sep-08 19:25N 29°54' E 122°02'0 0.1
2017-Sep-08 18:55N 29°54' E 122°02'0 0.1
2017-Sep-08 18:25N 29°54' E 122°02'0 0.0
2017-Sep-08 17:55N 29°54' E 122°02'0 0.2
2017-Sep-08 17:30N 29°54' E 122°02'2 3.0
2017-Sep-08 17:00N 29°54' E 122°04'611.2
2017-Sep-08 16:30N 29°55' E 122°10'713.9
2017-Sep-08 16:00N 29°49' E 122°14'5 9.5
2017-Sep-08 15:30N 29°45' E 122°18'4 7.2
2017-Sep-08 15:00N 29°44' E 122°22'  

Dump ship's entire track history